sensor_id;sensor_type;location;lat;lon;timestamp;pressure;altitude;pressure_sealevel;temperature;humidity
23417;BME280;11881;42.432;25.632;2022-09-14T00:01:20;99024.38;;;17.45;83.33
23417;BME280;11881;42.432;25.632;2022-09-14T00:03:46;99036.25;;;17.50;81.61
23417;BME280;11881;42.432;25.632;2022-09-14T00:06:14;99031.69;;;17.51;82.03
23417;BME280;11881;42.432;25.632;2022-09-14T00:08:41;99030.97;;;17.57;80.13
23417;BME280;11881;42.432;25.632;2022-09-14T00:11:12;99031.03;;;17.64;79.13
23417;BME280;11881;42.432;25.632;2022-09-14T00:13:42;99043.84;;;17.62;78.78
23417;BME280;11881;42.432;25.632;2022-09-14T00:16:13;99050.06;;;17.62;78.77
23417;BME280;11881;42.432;25.632;2022-09-14T00:18:40;99049.22;;;17.62;77.68
23417;BME280;11881;42.432;25.632;2022-09-14T00:21:08;99052.19;;;17.67;79.53
23417;BME280;11881;42.432;25.632;2022-09-14T00:23:35;99042.69;;;17.71;79.62
23417;BME280;11881;42.432;25.632;2022-09-14T00:26:07;99049.13;;;17.70;79.42
23417;BME280;11881;42.432;25.632;2022-09-14T00:28:45;99055.06;;;17.65;81.04
23417;BME280;11881;42.432;25.632;2022-09-14T00:31:12;99053.41;;;17.64;80.38
23417;BME280;11881;42.432;25.632;2022-09-14T00:33:37;99055.56;;;17.54;81.01
23417;BME280;11881;42.432;25.632;2022-09-14T00:36:07;99051.84;;;17.55;83.03
23417;BME280;11881;42.432;25.632;2022-09-14T00:38:33;99054.94;;;17.52;83.00
23417;BME280;11881;42.432;25.632;2022-09-14T00:40:59;99058.53;;;17.59;82.24
23417;BME280;11881;42.432;25.632;2022-09-14T00:43:25;99060.78;;;17.41;83.55
23417;BME280;11881;42.432;25.632;2022-09-14T00:45:51;99049.91;;;17.49;83.63
23417;BME280;11881;42.432;25.632;2022-09-14T00:48:16;99046.16;;;17.28;84.65
23417;BME280;11881;42.432;25.632;2022-09-14T00:50:43;99063.09;;;17.44;83.71
23417;BME280;11881;42.432;25.632;2022-09-14T00:53:08;99063.97;;;17.29;83.92
23417;BME280;11881;42.432;25.632;2022-09-14T00:55:34;99054.59;;;17.25;84.55
23417;BME280;11881;42.432;25.632;2022-09-14T00:57:59;99059.13;;;17.25;82.51
23417;BME280;11881;42.432;25.632;2022-09-14T01:00:28;99050.78;;;17.35;84.51
23417;BME280;11881;42.432;25.632;2022-09-14T01:02:54;99061.06;;;17.46;84.40
23417;BME280;11881;42.432;25.632;2022-09-14T01:05:26;99063.94;;;17.44;83.92
23417;BME280;11881;42.432;25.632;2022-09-14T01:11:10;99063.69;;;17.24;85.71
23417;BME280;11881;42.432;25.632;2022-09-14T01:14:21;99063.81;;;17.16;85.28
23417;BME280;11881;42.432;25.632;2022-09-14T01:16:54;99059.41;;;17.30;85.99
23417;BME280;11881;42.432;25.632;2022-09-14T01:21:54;99064.34;;;17.12;84.83
23417;BME280;11881;42.432;25.632;2022-09-14T01:24:38;99057.94;;;17.13;86.27
23417;BME280;11881;42.432;25.632;2022-09-14T01:27:26;99060.81;;;17.11;86.13
23417;BME280;11881;42.432;25.632;2022-09-14T01:30:21;99054.69;;;16.73;87.30
23417;BME280;11881;42.432;25.632;2022-09-14T01:35:26;99051.22;;;16.64;90.47
23417;BME280;11881;42.432;25.632;2022-09-14T01:38:01;99056.75;;;16.48;89.69
23417;BME280;11881;42.432;25.632;2022-09-14T01:40:38;99045.97;;;16.71;89.41
23417;BME280;11881;42.432;25.632;2022-09-14T01:43:07;99053.88;;;16.49;91.86
23417;BME280;11881;42.432;25.632;2022-09-14T01:45:40;99052.09;;;16.42;91.50
23417;BME280;11881;42.432;25.632;2022-09-14T01:48:09;99057.81;;;16.39;91.47
23417;BME280;11881;42.432;25.632;2022-09-14T01:50:44;99057.00;;;16.38;91.99
23417;BME280;11881;42.432;25.632;2022-09-14T01:53:18;99054.94;;;16.40;91.43
23417;BME280;11881;42.432;25.632;2022-09-14T01:55:58;99050.38;;;16.26;92.18
23417;BME280;11881;42.432;25.632;2022-09-14T01:58:32;99054.00;;;16.33;91.12
23417;BME280;11881;42.432;25.632;2022-09-14T02:01:01;99049.50;;;16.48;90.49
23417;BME280;11881;42.432;25.632;2022-09-14T02:03:31;99050.94;;;16.59;89.26
23417;BME280;11881;42.432;25.632;2022-09-14T02:06:10;99048.66;;;16.86;88.59
23417;BME280;11881;42.432;25.632;2022-09-14T02:08:37;99058.00;;;16.75;88.34
23417;BME280;11881;42.432;25.632;2022-09-14T02:11:03;99054.88;;;16.71;89.20
23417;BME280;11881;42.432;25.632;2022-09-14T02:13:28;99048.94;;;16.76;89.69
23417;BME280;11881;42.432;25.632;2022-09-14T02:15:54;99053.84;;;16.72;89.01
23417;BME280;11881;42.432;25.632;2022-09-14T02:18:20;99053.94;;;16.79;89.38
23417;BME280;11881;42.432;25.632;2022-09-14T02:21:02;99050.78;;;16.75;89.24
23417;BME280;11881;42.432;25.632;2022-09-14T02:23:28;99055.38;;;16.67;89.83
23417;BME280;11881;42.432;25.632;2022-09-14T02:25:54;99049.09;;;16.74;89.73
23417;BME280;11881;42.432;25.632;2022-09-14T02:28:20;99053.72;;;16.66;89.68
23417;BME280;11881;42.432;25.632;2022-09-14T02:33:47;99055.44;;;16.44;90.25
23417;BME280;11881;42.432;25.632;2022-09-14T02:39:44;99056.56;;;16.49;87.79
23417;BME280;11881;42.432;25.632;2022-09-14T02:45:51;99061.63;;;16.30;90.09
23417;BME280;11881;42.432;25.632;2022-09-14T02:48:43;99055.19;;;16.54;88.95
23417;BME280;11881;42.432;25.632;2022-09-14T02:53:58;99052.44;;;16.39;88.58
23417;BME280;11881;42.432;25.632;2022-09-14T02:56:25;99046.78;;;16.34;89.22
23417;BME280;11881;42.432;25.632;2022-09-14T02:58:52;99055.34;;;16.52;88.88
23417;BME280;11881;42.432;25.632;2022-09-14T03:01:19;99044.06;;;16.19;90.40
23417;BME280;11881;42.432;25.632;2022-09-14T03:03:45;99050.81;;;16.15;91.48
23417;BME280;11881;42.432;25.632;2022-09-14T03:06:11;99051.28;;;15.95;92.56
23417;BME280;11881;42.432;25.632;2022-09-14T03:08:37;99050.31;;;16.11;91.87
23417;BME280;11881;42.432;25.632;2022-09-14T03:11:02;99051.75;;;16.22;91.25
23417;BME280;11881;42.432;25.632;2022-09-14T03:13:28;99052.75;;;16.21;92.21
23417;BME280;11881;42.432;25.632;2022-09-14T03:15:53;99056.50;;;16.35;91.52
23417;BME280;11881;42.432;25.632;2022-09-14T03:18:19;99053.91;;;16.27;91.85
23417;BME280;11881;42.432;25.632;2022-09-14T03:20:44;99050.31;;;16.11;93.57
23417;BME280;11881;42.432;25.632;2022-09-14T03:23:11;99046.75;;;16.19;93.26
23417;BME280;11881;42.432;25.632;2022-09-14T03:25:39;99054.69;;;16.12;92.88
23417;BME280;11881;42.432;25.632;2022-09-14T03:28:05;99058.94;;;16.07;93.28
23417;BME280;11881;42.432;25.632;2022-09-14T03:30:31;99065.31;;;16.06;93.24
23417;BME280;11881;42.432;25.632;2022-09-14T03:32:58;99055.00;;;15.94;94.46
23417;BME280;11881;42.432;25.632;2022-09-14T03:35:24;99061.47;;;16.00;94.96
23417;BME280;11881;42.432;25.632;2022-09-14T03:37:50;99052.72;;;16.06;95.11
23417;BME280;11881;42.432;25.632;2022-09-14T03:40:16;99058.34;;;16.19;93.63
23417;BME280;11881;42.432;25.632;2022-09-14T03:42:47;99064.06;;;16.16;93.82
23417;BME280;11881;42.432;25.632;2022-09-14T03:45:14;99064.44;;;16.13;92.86
23417;BME280;11881;42.432;25.632;2022-09-14T03:47:40;99066.69;;;16.25;92.40
23417;BME280;11881;42.432;25.632;2022-09-14T03:50:07;99060.63;;;16.22;93.36
23417;BME280;11881;42.432;25.632;2022-09-14T03:52:34;99072.31;;;16.15;93.57
23417;BME280;11881;42.432;25.632;2022-09-14T03:55:00;99068.56;;;16.01;94.11
23417;BME280;11881;42.432;25.632;2022-09-14T03:57:25;99078.03;;;16.12;93.12
23417;BME280;11881;42.432;25.632;2022-09-14T03:59:51;99076.25;;;16.04;94.23
23417;BME280;11881;42.432;25.632;2022-09-14T04:02:16;99074.22;;;16.06;94.33
23417;BME280;11881;42.432;25.632;2022-09-14T04:04:42;99074.56;;;16.03;93.38
23417;BME280;11881;42.432;25.632;2022-09-14T04:07:07;99072.50;;;16.13;93.74
23417;BME280;11881;42.432;25.632;2022-09-14T04:09:33;99075.41;;;16.04;94.33
23417;BME280;11881;42.432;25.632;2022-09-14T04:11:58;99060.34;;;16.17;93.77
23417;BME280;11881;42.432;25.632;2022-09-14T04:14:24;99060.22;;;16.34;93.04
23417;BME280;11881;42.432;25.632;2022-09-14T04:16:50;99065.25;;;16.14;93.77
23417;BME280;11881;42.432;25.632;2022-09-14T04:19:15;99069.44;;;16.16;92.63
23417;BME280;11881;42.432;25.632;2022-09-14T04:21:40;99068.47;;;16.32;91.84
23417;BME280;11881;42.432;25.632;2022-09-14T04:24:06;99066.31;;;16.28;92.02
23417;BME280;11881;42.432;25.632;2022-09-14T04:26:33;99061.56;;;16.15;94.45
23417;BME280;11881;42.432;25.632;2022-09-14T04:28:59;99063.22;;;16.16;94.07
23417;BME280;11881;42.432;25.632;2022-09-14T04:31:25;99064.88;;;16.17;93.64
23417;BME280;11881;42.432;25.632;2022-09-14T04:33:50;99076.97;;;16.21;94.23
23417;BME280;11881;42.432;25.632;2022-09-14T04:36:20;99075.22;;;16.28;92.30
23417;BME280;11881;42.432;25.632;2022-09-14T04:38:47;99072.97;;;16.55;90.57
23417;BME280;11881;42.432;25.632;2022-09-14T04:43:38;99061.56;;;16.90;88.88
23417;BME280;11881;42.432;25.632;2022-09-14T04:46:06;99067.19;;;16.81;88.27
23417;BME280;11881;42.432;25.632;2022-09-14T04:48:33;99070.47;;;16.76;88.92
23417;BME280;11881;42.432;25.632;2022-09-14T04:51:19;99082.88;;;16.92;88.12
23417;BME280;11881;42.432;25.632;2022-09-14T04:53:47;99076.88;;;16.90;88.47
23417;BME280;11881;42.432;25.632;2022-09-14T04:56:17;99085.31;;;17.01;87.38
23417;BME280;11881;42.432;25.632;2022-09-14T04:58:47;99079.00;;;17.09;88.05
23417;BME280;11881;42.432;25.632;2022-09-14T05:01:16;99086.91;;;17.25;87.88
23417;BME280;11881;42.432;25.632;2022-09-14T05:03:42;99087.34;;;17.14;89.11
23417;BME280;11881;42.432;25.632;2022-09-14T05:59:53;99110.78;;;19.43;77.03
23417;BME280;11881;42.432;25.632;2022-09-14T06:02:18;99111.47;;;19.58;76.59
23417;BME280;11881;42.432;25.632;2022-09-14T06:04:45;99113.22;;;19.31;77.90
23417;BME280;11881;42.432;25.632;2022-09-14T06:07:10;99117.25;;;19.48;78.60
23417;BME280;11881;42.432;25.632;2022-09-14T06:09:35;99117.16;;;19.70;77.11
23417;BME280;11881;42.432;25.632;2022-09-14T06:12:02;99120.69;;;19.70;77.23
23417;BME280;11881;42.432;25.632;2022-09-14T06:14:28;99113.66;;;19.76;77.00
23417;BME280;11881;42.432;25.632;2022-09-14T06:16:53;99109.56;;;19.93;74.56
23417;BME280;11881;42.432;25.632;2022-09-14T06:19:18;99119.97;;;19.89;75.55
23417;BME280;11881;42.432;25.632;2022-09-14T06:21:44;99125.63;;;20.08;73.54
23417;BME280;11881;42.432;25.632;2022-09-14T06:24:10;99129.19;;;20.15;71.08
23417;BME280;11881;42.432;25.632;2022-09-14T06:26:39;99127.06;;;20.10;73.29
23417;BME280;11881;42.432;25.632;2022-09-14T06:29:05;99127.13;;;20.24;74.14
23417;BME280;11881;42.432;25.632;2022-09-14T06:31:30;99128.78;;;20.25;72.01
23417;BME280;11881;42.432;25.632;2022-09-14T06:33:56;99131.06;;;20.28;72.32
23417;BME280;11881;42.432;25.632;2022-09-14T06:36:25;99134.22;;;20.38;71.36
23417;BME280;11881;42.432;25.632;2022-09-14T06:38:52;99132.19;;;20.73;68.97
23417;BME280;11881;42.432;25.632;2022-09-14T06:41:20;99138.25;;;20.82;70.31
23417;BME280;11881;42.432;25.632;2022-09-14T06:43:46;99148.03;;;20.96;69.50
23417;BME280;11881;42.432;25.632;2022-09-14T06:46:14;99143.66;;;20.95;70.76
23417;BME280;11881;42.432;25.632;2022-09-14T06:48:58;99152.41;;;20.70;68.46
23417;BME280;11881;42.432;25.632;2022-09-14T06:51:27;99145.97;;;20.71;69.34
23417;BME280;11881;42.432;25.632;2022-09-14T06:53:57;99142.38;;;21.04;68.45
23417;BME280;11881;42.432;25.632;2022-09-14T06:56:27;99146.78;;;21.12;66.81
23417;BME280;11881;42.432;25.632;2022-09-14T06:58:53;99157.22;;;20.95;66.59
23417;BME280;11881;42.432;25.632;2022-09-14T07:01:20;99146.78;;;20.92;66.66
23417;BME280;11881;42.432;25.632;2022-09-14T07:03:46;99143.03;;;20.93;66.63
23417;BME280;11881;42.432;25.632;2022-09-14T07:06:18;99144.91;;;20.99;67.21
23417;BME280;11881;42.432;25.632;2022-09-14T07:08:45;99148.41;;;21.26;65.03
23417;BME280;11881;42.432;25.632;2022-09-14T07:11:12;99148.66;;;21.11;65.49
23417;BME280;11881;42.432;25.632;2022-09-14T07:13:38;99144.03;;;21.38;65.45
23417;BME280;11881;42.432;25.632;2022-09-14T07:16:05;99153.19;;;21.44;65.82
23417;BME280;11881;42.432;25.632;2022-09-14T07:18:30;99153.81;;;21.52;64.22
23417;BME280;11881;42.432;25.632;2022-09-14T07:23:28;99155.78;;;21.84;63.82
23417;BME280;11881;42.432;25.632;2022-09-14T07:26:24;99149.31;;;21.85;62.69
23417;BME280;11881;42.432;25.632;2022-09-14T07:28:56;99154.03;;;22.09;62.74
23417;BME280;11881;42.432;25.632;2022-09-14T07:33:52;99147.88;;;22.34;61.80
23417;BME280;11881;42.432;25.632;2022-09-14T07:36:17;99139.50;;;22.35;61.23
23417;BME280;11881;42.432;25.632;2022-09-14T07:38:43;99136.03;;;22.21;61.48
23417;BME280;11881;42.432;25.632;2022-09-14T07:41:09;99134.59;;;22.50;63.10
23417;BME280;11881;42.432;25.632;2022-09-14T07:43:34;99148.97;;;22.82;62.54
23417;BME280;11881;42.432;25.632;2022-09-14T07:46:04;99145.38;;;22.89;62.20
23417;BME280;11881;42.432;25.632;2022-09-14T07:48:34;99140.50;;;23.22;60.70
23417;BME280;11881;42.432;25.632;2022-09-14T07:51:06;99143.97;;;23.29;61.45
23417;BME280;11881;42.432;25.632;2022-09-14T07:53:37;99131.19;;;23.30;60.05
23417;BME280;11881;42.432;25.632;2022-09-14T07:56:04;99134.25;;;23.40;59.67
23417;BME280;11881;42.432;25.632;2022-09-14T07:58:29;99131.03;;;23.25;60.65
23417;BME280;11881;42.432;25.632;2022-09-14T08:01:15;99124.13;;;23.29;62.00
23417;BME280;11881;42.432;25.632;2022-09-14T08:03:44;99127.66;;;23.29;57.78
23417;BME280;11881;42.432;25.632;2022-09-14T08:06:19;99132.66;;;23.32;59.28
23417;BME280;11881;42.432;25.632;2022-09-14T08:08:48;99134.09;;;23.53;58.38
23417;BME280;11881;42.432;25.632;2022-09-14T08:13:50;99127.41;;;23.74;57.55
23417;BME280;11881;42.432;25.632;2022-09-14T08:16:17;99133.09;;;23.48;58.57
23417;BME280;11881;42.432;25.632;2022-09-14T08:18:43;99123.84;;;23.37;58.62
23417;BME280;11881;42.432;25.632;2022-09-14T08:21:12;99129.41;;;23.42;58.35
23417;BME280;11881;42.432;25.632;2022-09-14T08:23:39;99129.72;;;23.52;59.48
23417;BME280;11881;42.432;25.632;2022-09-14T08:26:09;99124.91;;;23.73;57.58
23417;BME280;11881;42.432;25.632;2022-09-14T08:28:35;99120.91;;;23.75;58.53
23417;BME280;11881;42.432;25.632;2022-09-14T08:31:07;99130.34;;;23.91;57.68
23417;BME280;11881;42.432;25.632;2022-09-14T08:33:35;99120.91;;;24.05;58.63
23417;BME280;11881;42.432;25.632;2022-09-14T08:36:01;99121.00;;;24.29;54.30
23417;BME280;11881;42.432;25.632;2022-09-14T08:38:27;99124.91;;;24.21;54.49
23417;BME280;11881;42.432;25.632;2022-09-14T08:40:53;99127.03;;;24.19;55.95
23417;BME280;11881;42.432;25.632;2022-09-14T08:43:20;99118.97;;;24.42;55.74
23417;BME280;11881;42.432;25.632;2022-09-14T08:45:47;99108.56;;;24.51;55.92
23417;BME280;11881;42.432;25.632;2022-09-14T08:48:22;99108.38;;;24.64;54.87
23417;BME280;11881;42.432;25.632;2022-09-14T08:50:49;99108.34;;;24.53;56.19
23417;BME280;11881;42.432;25.632;2022-09-14T08:53:19;99117.38;;;24.35;54.59
23417;BME280;11881;42.432;25.632;2022-09-14T08:55:52;99112.47;;;24.55;54.83
23417;BME280;11881;42.432;25.632;2022-09-14T09:01:10;99114.88;;;24.87;53.21
23417;BME280;11881;42.432;25.632;2022-09-14T09:09:23;99096.31;;;24.95;53.04
23417;BME280;11881;42.432;25.632;2022-09-14T09:11:42;99095.50;;;25.18;52.89
23417;BME280;11881;42.432;25.632;2022-09-14T09:14:34;99096.75;;;24.92;52.48
23417;BME280;11881;42.432;25.632;2022-09-14T09:17:16;99091.56;;;25.03;51.30
23417;BME280;11881;42.432;25.632;2022-09-14T09:20:00;99097.41;;;25.18;52.25
23417;BME280;11881;42.432;25.632;2022-09-14T09:22:30;99089.91;;;25.37;52.23
23417;BME280;11881;42.432;25.632;2022-09-14T09:24:59;99085.81;;;25.63;53.64
23417;BME280;11881;42.432;25.632;2022-09-14T09:27:27;99086.25;;;25.83;51.54
23417;BME280;11881;42.432;25.632;2022-09-14T09:29:52;99082.59;;;26.06;50.16
23417;BME280;11881;42.432;25.632;2022-09-14T09:32:22;99083.53;;;26.12;50.69
23417;BME280;11881;42.432;25.632;2022-09-14T09:34:49;99073.63;;;25.94;46.73
23417;BME280;11881;42.432;25.632;2022-09-14T09:37:17;99068.84;;;26.01;47.51
23417;BME280;11881;42.432;25.632;2022-09-14T09:39:43;99065.25;;;26.12;49.85
23417;BME280;11881;42.432;25.632;2022-09-14T09:42:24;99063.44;;;26.35;49.94
23417;BME280;11881;42.432;25.632;2022-09-14T09:45:04;99068.22;;;26.11;46.10
23417;BME280;11881;42.432;25.632;2022-09-14T09:47:40;99068.53;;;26.43;46.19
23417;BME280;11881;42.432;25.632;2022-09-14T09:52:47;99054.88;;;26.60;44.49
23417;BME280;11881;42.432;25.632;2022-09-14T09:55:18;99051.16;;;26.66;45.39
23417;BME280;11881;42.432;25.632;2022-09-14T09:57:44;99054.81;;;26.26;43.73
23417;BME280;11881;42.432;25.632;2022-09-14T10:02:43;99040.38;;;26.42;43.46
23417;BME280;11881;42.432;25.632;2022-09-14T10:07:38;99044.19;;;26.75;42.22
23417;BME280;11881;42.432;25.632;2022-09-14T10:10:15;99041.94;;;26.72;41.04
23417;BME280;11881;42.432;25.632;2022-09-14T10:12:48;99036.97;;;26.86;40.65
23417;BME280;11881;42.432;25.632;2022-09-14T10:15:19;99037.63;;;27.10;40.23
23417;BME280;11881;42.432;25.632;2022-09-14T10:20:31;99033.44;;;27.24;39.81
23417;BME280;11881;42.432;25.632;2022-09-14T10:23:14;99030.47;;;27.25;42.16
23417;BME280;11881;42.432;25.632;2022-09-14T10:25:40;99032.09;;;27.48;41.70
23417;BME280;11881;42.432;25.632;2022-09-14T10:28:19;99023.66;;;27.72;40.58
23417;BME280;11881;42.432;25.632;2022-09-14T10:30:49;99034.97;;;27.80;39.86
23417;BME280;11881;42.432;25.632;2022-09-14T10:33:16;99023.50;;;27.83;35.14
23417;BME280;11881;42.432;25.632;2022-09-14T10:40:58;99010.84;;;27.12;36.15
23417;BME280;11881;42.432;25.632;2022-09-14T10:46:03;99000.41;;;27.52;37.19
23417;BME280;11881;42.432;25.632;2022-09-14T10:57:19;98998.81;;;27.35;36.63
23417;BME280;11881;42.432;25.632;2022-09-14T10:59:23;98991.19;;;27.37;36.73
23417;BME280;11881;42.432;25.632;2022-09-14T11:02:04;98988.63;;;27.52;38.00
23417;BME280;11881;42.432;25.632;2022-09-14T11:04:54;98986.84;;;27.63;38.06
23417;BME280;11881;42.432;25.632;2022-09-14T11:07:33;98986.41;;;27.71;36.42
23417;BME280;11881;42.432;25.632;2022-09-14T11:10:25;98984.25;;;27.51;35.81
23417;BME280;11881;42.432;25.632;2022-09-14T11:15:54;98986.16;;;27.28;36.27
23417;BME280;11881;42.432;25.632;2022-09-14T11:23:46;98975.00;;;27.57;37.79
23417;BME280;11881;42.432;25.632;2022-09-14T11:28:53;98977.41;;;27.53;36.70
23417;BME280;11881;42.432;25.632;2022-09-14T11:31:34;98971.78;;;27.38;35.77
23417;BME280;11881;42.432;25.632;2022-09-14T11:34:21;98981.47;;;26.85;36.04
23417;BME280;11881;42.432;25.632;2022-09-14T11:36:55;98980.28;;;26.98;37.11
23417;BME280;11881;42.432;25.632;2022-09-14T11:39:31;98968.72;;;27.35;36.19
23417;BME280;11881;42.432;25.632;2022-09-14T11:42:03;98965.09;;;27.29;35.99
23417;BME280;11881;42.432;25.632;2022-09-14T11:44:40;98956.09;;;27.28;35.20
23417;BME280;11881;42.432;25.632;2022-09-14T11:47:13;98961.88;;;27.10;35.26
23417;BME280;11881;42.432;25.632;2022-09-14T11:50:06;98952.13;;;26.97;34.98
23417;BME280;11881;42.432;25.632;2022-09-14T11:52:35;98941.81;;;27.04;35.57
23417;BME280;11881;42.432;25.632;2022-09-14T11:55:02;98934.59;;;27.15;37.86
23417;BME280;11881;42.432;25.632;2022-09-14T11:57:33;98934.53;;;27.32;38.08
23417;BME280;11881;42.432;25.632;2022-09-14T12:02:56;98919.69;;;27.28;36.23
23417;BME280;11881;42.432;25.632;2022-09-14T12:05:24;98925.44;;;27.53;36.85
23417;BME280;11881;42.432;25.632;2022-09-14T12:10:20;98913.06;;;27.24;34.84
23417;BME280;11881;42.432;25.632;2022-09-14T12:15:36;98901.31;;;27.23;36.78
23417;BME280;11881;42.432;25.632;2022-09-14T12:28:41;98893.56;;;27.15;35.87
23417;BME280;11881;42.432;25.632;2022-09-14T12:44:31;98893.78;;;26.48;39.17
23417;BME280;11881;42.432;25.632;2022-09-14T12:46:57;98889.31;;;26.42;39.72
23417;BME280;11881;42.432;25.632;2022-09-14T12:49:43;98882.53;;;26.27;40.14
23417;BME280;11881;42.432;25.632;2022-09-14T12:52:18;98884.19;;;26.29;37.14
23417;BME280;11881;42.432;25.632;2022-09-14T12:55:12;98885.25;;;26.44;37.51
23417;BME280;11881;42.432;25.632;2022-09-14T12:57:55;98884.56;;;26.37;36.56
23417;BME280;11881;42.432;25.632;2022-09-14T13:00:24;98877.16;;;26.33;38.15
23417;BME280;11881;42.432;25.632;2022-09-14T13:03:01;98875.72;;;26.30;37.91
23417;BME280;11881;42.432;25.632;2022-09-14T13:05:31;98874.06;;;26.29;39.52
23417;BME280;11881;42.432;25.632;2022-09-14T13:07:57;98882.19;;;26.24;40.32
23417;BME280;11881;42.432;25.632;2022-09-14T13:10:31;98887.31;;;26.20;41.49
23417;BME280;11881;42.432;25.632;2022-09-14T13:12:58;98890.66;;;26.06;42.02
23417;BME280;11881;42.432;25.632;2022-09-14T13:15:27;98881.47;;;26.12;41.23
23417;BME280;11881;42.432;25.632;2022-09-14T13:18:33;98879.47;;;26.24;40.92
23417;BME280;11881;42.432;25.632;2022-09-14T13:21:22;98876.91;;;26.17;39.00
23417;BME280;11881;42.432;25.632;2022-09-14T13:23:49;98879.56;;;26.12;39.75
23417;BME280;11881;42.432;25.632;2022-09-14T13:28:45;98878.56;;;26.18;40.30
23417;BME280;11881;42.432;25.632;2022-09-14T13:31:22;98893.03;;;26.19;39.55
23417;BME280;11881;42.432;25.632;2022-09-14T13:33:51;98882.81;;;26.09;40.96
23417;BME280;11881;42.432;25.632;2022-09-14T13:36:21;98891.13;;;26.03;42.36
23417;BME280;11881;42.432;25.632;2022-09-14T13:38:47;98895.13;;;25.95;42.80
23417;BME280;11881;42.432;25.632;2022-09-14T13:41:18;98896.69;;;25.91;42.10
23417;BME280;11881;42.432;25.632;2022-09-14T13:43:45;98894.03;;;25.96;40.78
23417;BME280;11881;42.432;25.632;2022-09-14T13:46:12;98898.28;;;26.04;41.52
23417;BME280;11881;42.432;25.632;2022-09-14T13:48:39;98890.41;;;26.07;40.10
23417;BME280;11881;42.432;25.632;2022-09-14T13:51:06;98893.47;;;26.11;41.15
23417;BME280;11881;42.432;25.632;2022-09-14T13:53:42;98892.22;;;26.18;39.86
23417;BME280;11881;42.432;25.632;2022-09-14T13:58:45;98882.63;;;26.16;40.44
23417;BME280;11881;42.432;25.632;2022-09-14T14:01:11;98881.22;;;26.13;40.67
23417;BME280;11881;42.432;25.632;2022-09-14T14:03:40;98885.84;;;26.13;41.50
23417;BME280;11881;42.432;25.632;2022-09-14T14:06:26;98881.03;;;26.20;40.12
23417;BME280;11881;42.432;25.632;2022-09-14T14:09:04;98882.56;;;26.11;41.92
23417;BME280;11881;42.432;25.632;2022-09-14T14:11:39;98882.38;;;26.00;42.41
23417;BME280;11881;42.432;25.632;2022-09-14T14:16:41;98894.47;;;26.21;40.07
23417;BME280;11881;42.432;25.632;2022-09-14T14:19:26;98887.75;;;26.29;40.48
23417;BME280;11881;42.432;25.632;2022-09-14T14:22:26;98891.03;;;26.31;39.95
23417;BME280;11881;42.432;25.632;2022-09-14T14:24:52;98879.47;;;26.24;40.82
23417;BME280;11881;42.432;25.632;2022-09-14T14:27:41;98876.16;;;26.39;39.85
23417;BME280;11881;42.432;25.632;2022-09-14T14:30:26;98874.56;;;26.43;40.17
23417;BME280;11881;42.432;25.632;2022-09-14T14:32:54;98889.78;;;26.39;40.57
23417;BME280;11881;42.432;25.632;2022-09-14T14:35:26;98886.72;;;26.35;41.46
23417;BME280;11881;42.432;25.632;2022-09-14T14:37:52;98888.31;;;26.31;41.77
23417;BME280;11881;42.432;25.632;2022-09-14T14:40:19;98887.88;;;26.39;40.06
23417;BME280;11881;42.432;25.632;2022-09-14T14:42:45;98885.56;;;26.48;40.49
23417;BME280;11881;42.432;25.632;2022-09-14T14:45:17;98877.44;;;26.36;41.21
23417;BME280;11881;42.432;25.632;2022-09-14T14:47:46;98868.88;;;26.27;41.21
23417;BME280;11881;42.432;25.632;2022-09-14T14:50:18;98873.25;;;26.29;41.91
23417;BME280;11881;42.432;25.632;2022-09-14T14:52:43;98869.84;;;26.38;41.31
23417;BME280;11881;42.432;25.632;2022-09-14T14:55:09;98867.13;;;26.38;41.19
23417;BME280;11881;42.432;25.632;2022-09-14T14:57:35;98863.16;;;26.46;41.52
23417;BME280;11881;42.432;25.632;2022-09-14T15:00:02;98864.63;;;26.37;42.80
23417;BME280;11881;42.432;25.632;2022-09-14T15:02:28;98863.22;;;26.34;41.86
23417;BME280;11881;42.432;25.632;2022-09-14T15:04:54;98873.56;;;26.32;41.61
23417;BME280;11881;42.432;25.632;2022-09-14T15:07:19;98863.16;;;26.29;43.69
23417;BME280;11881;42.432;25.632;2022-09-14T15:09:44;98865.44;;;26.15;44.39
23417;BME280;11881;42.432;25.632;2022-09-14T15:12:10;98862.34;;;26.12;44.76
23417;BME280;11881;42.432;25.632;2022-09-14T15:14:35;98861.72;;;26.05;45.98
23417;BME280;11881;42.432;25.632;2022-09-14T15:17:01;98865.59;;;25.92;46.60
23417;BME280;11881;42.432;25.632;2022-09-14T15:19:27;98867.34;;;25.81;47.82
23417;BME280;11881;42.432;25.632;2022-09-14T15:21:53;98858.91;;;25.83;44.21
23417;BME280;11881;42.432;25.632;2022-09-14T15:24:18;98852.69;;;26.04;43.34
23417;BME280;11881;42.432;25.632;2022-09-14T15:26:44;98842.97;;;26.13;43.54
23417;BME280;11881;42.432;25.632;2022-09-14T15:29:10;98841.84;;;26.09;44.87
23417;BME280;11881;42.432;25.632;2022-09-14T15:31:41;98848.06;;;26.05;44.74
23417;BME280;11881;42.432;25.632;2022-09-14T15:34:07;98845.00;;;26.01;45.37
23417;BME280;11881;42.432;25.632;2022-09-14T15:36:51;98842.59;;;25.88;46.72
23417;BME280;11881;42.432;25.632;2022-09-14T15:39:24;98836.97;;;25.78;45.44
23417;BME280;11881;42.432;25.632;2022-09-14T15:41:52;98825.06;;;25.84;47.87
23417;BME280;11881;42.432;25.632;2022-09-14T15:44:18;98840.09;;;25.69;47.89
23417;BME280;11881;42.432;25.632;2022-09-14T15:46:44;98829.59;;;25.61;50.21
23417;BME280;11881;42.432;25.632;2022-09-14T15:49:15;98838.19;;;25.53;49.47
23417;BME280;11881;42.432;25.632;2022-09-14T15:51:46;98822.72;;;25.42;50.04
23417;BME280;11881;42.432;25.632;2022-09-14T15:54:13;98826.91;;;25.33;53.38
23417;BME280;11881;42.432;25.632;2022-09-14T15:56:39;98827.78;;;25.21;54.05